Terminal Aerodrome Forecast
Issued by NWS

Home | Current Version | Previous Version | Text Only | Print | Product List | Glossary On
Versions: 1 2 3 4 5 6 7 8 9 10 11 12 13 14 15 16 17 18 19 20 21 22 23 24 25 26 27 28
000
FTUS44 KMAF 241124
TAFCNM
TAF
KCNM 241124Z 2412/2512 18005KT P6SM BKN070 BKN090 OVC110
     FM241600 19013G23KT P6SM SCT021 BKN120
     FM250100 19007KT P6SM BKN120=

USA.gov is the U.S. government's official web portal to all federal, state and local government web resources and services.